Time;durP1;ratioP1;P1;durP2;ratioP2;P2;SDS_P1;SDS_P2;PMS_P1;PMS_P2;Temp;Humidity;BMP_temperature;BMP_pressure;BME280_temperature;BME280_humidity;BME280_pressure;Samples;Min_cycle;Max_cycle;Signal;HPM_P1;HPM_P2
2022/12/31 00:01:10;;;;;;;0.70;0.70;;;14.50;99.90;;;;;;4998520;28;20253;-81
2022/12/31 00:03:37;;;;;;;1.33;0.80;;;14.50;99.90;;;;;;4997965;28;20271;-82
2022/12/31 00:06:19;;;;;;;0.80;0.80;;;14.50;99.90;;;;;;5013098;28;20205;-81
2022/12/31 00:08:45;;;;;;;1.02;0.77;;;14.50;99.90;;;;;;4998348;28;20260;-81
2022/12/31 00:11:11;;;;;;;0.80;0.80;;;14.40;99.90;;;;;;4996490;28;20169;-82
2022/12/31 00:13:37;;;;;;;1.95;0.60;;;14.40;99.90;;;;;;4998466;28;20201;-81
2022/12/31 00:16:11;;;;;;;1.05;0.80;;;14.40;99.90;;;;;;4998935;28;20165;-82
2022/12/31 00:18:37;;;;;;;9.48;0.68;;;14.40;99.90;;;;;;5014319;28;20212;-81
2022/12/31 00:21:08;;;;;;;0.73;0.70;;;14.40;99.90;;;;;;4998635;28;20239;-85
2022/12/31 00:23:35;;;;;;;0.70;0.70;;;14.50;99.90;;;;;;4998553;28;20196;-81
2022/12/31 00:26:17;;;;;;;0.50;0.50;;;14.50;99.90;;;;;;4997981;28;20209;-89
2022/12/31 00:28:43;;;;;;;0.85;0.57;;;14.50;99.90;;;;;;5004700;28;20200;-81
2022/12/31 00:31:20;;;;;;;0.50;0.50;;;14.50;99.90;;;;;;5025482;28;20180;-81
2022/12/31 00:33:46;;;;;;;0.50;0.50;;;14.50;99.90;;;;;;5024371;28;20204;-87
2022/12/31 00:36:14;;;;;;;1.55;0.43;;;14.50;99.90;;;;;;5006867;28;20646;-81
2022/12/31 00:38:43;;;;;;;0.40;0.40;;;14.60;99.90;;;;;;5005496;28;20215;-81
2022/12/31 00:41:09;;;;;;;0.30;0.30;;;14.60;99.90;;;;;;5007627;28;20180;-87
2022/12/31 00:43:35;;;;;;;0.40;0.40;;;14.60;99.90;;;;;;5014092;28;20697;-80
2022/12/31 00:46:02;;;;;;;0.88;0.40;;;14.60;99.90;;;;;;5016394;28;20235;-81
2022/12/31 00:48:27;;;;;;;0.43;0.40;;;14.60;99.90;;;;;;5018491;28;20169;-81
2022/12/31 00:50:54;;;;;;;3.75;0.30;;;14.70;99.90;;;;;;5034430;28;20183;-82
2022/12/31 00:53:21;;;;;;;0.85;0.28;;;14.70;99.90;;;;;;5019233;28;20188;-82
2022/12/31 00:55:46;;;;;;;0.30;0.30;;;14.80;99.90;;;;;;5014988;28;20193;-81
2022/12/31 00:58:12;;;;;;;0.38;0.38;;;14.80;99.90;;;;;;5014632;28;20177;-83
2022/12/31 01:00:39;;;;;;;8.70;0.40;;;14.80;99.90;;;;;;5016695;28;20169;-81
2022/12/31 01:03:04;;;;;;;0.80;0.20;;;14.90;99.90;;;;;;5016976;28;20196;-81
2022/12/31 01:05:31;;;;;;;0.20;0.20;;;14.90;99.90;;;;;;5008032;28;20204;-80
2022/12/31 01:07:57;;;;;;;0.85;0.30;;;15.00;99.90;;;;;;5012730;28;20177;-82
2022/12/31 01:13:07;;;;;;;1.05;0.20;;;15.00;99.90;;;;;;5015314;28;20269;-81
2022/12/31 01:15:39;;;;;;;0.65;0.30;;;15.00;99.90;;;;;;5010429;28;20173;-82
2022/12/31 01:18:09;;;;;;;0.40;0.35;;;15.00;99.90;;;;;;5001675;28;20227;-86
2022/12/31 01:20:37;;;;;;;0.52;0.20;;;14.90;99.90;;;;;;5016967;28;20181;-83
2022/12/31 01:23:03;;;;;;;0.68;0.20;;;14.80;99.90;;;;;;5009457;28;20201;-82
2022/12/31 01:25:28;;;;;;;1.08;0.40;;;14.70;99.90;;;;;;5013456;28;20205;-82
2022/12/31 01:27:54;;;;;;;0.57;0.20;;;14.70;99.90;;;;;;5015510;28;20169;-85
2022/12/31 01:30:20;;;;;;;0.80;0.40;;;14.50;99.90;;;;;;5010640;28;20253;-80
2022/12/31 01:32:45;;;;;;;5.22;0.30;;;14.40;99.90;;;;;;5030180;28;20229;-81
2022/12/31 01:35:11;;;;;;;0.20;0.20;;;14.30;99.90;;;;;;5016753;28;20199;-82
2022/12/31 01:37:37;;;;;;;0.20;0.20;;;14.20;99.90;;;;;;5015919;28;20164;-81
2022/12/31 01:40:03;;;;;;;0.22;0.20;;;14.30;99.90;;;;;;5016426;28;20169;-82
2022/12/31 01:42:29;;;;;;;0.43;0.28;;;14.20;99.90;;;;;;5016950;28;20189;-82
2022/12/31 01:44:55;;;;;;;0.38;0.35;;;14.30;99.90;;;;;;5010546;28;20681;-82
2022/12/31 01:47:33;;;;;;;0.50;0.40;;;14.20;99.90;;;;;;5023437;28;20267;-81
2022/12/31 01:50:08;;;;;;;0.30;0.20;;;14.30;99.90;;;;;;5005362;28;20173;-81
2022/12/31 01:52:43;;;;;;;1.13;0.25;;;14.20;99.90;;;;;;5010315;28;20227;-82
2022/12/31 01:55:15;;;;;;;0.35;0.30;;;14.30;99.90;;;;;;5008604;28;20163;-81
2022/12/31 01:57:46;;;;;;;0.95;0.63;;;14.30;99.90;;;;;;5005210;28;20169;-82
2022/12/31 02:00:13;;;;;;;0.95;0.30;;;14.20;99.90;;;;;;5005290;28;20233;-82
2022/12/31 02:02:38;;;;;;;2.67;0.28;;;14.30;99.90;;;;;;5012407;28;20200;-82
2022/12/31 02:05:16;;;;;;;0.57;0.28;;;14.40;99.90;;;;;;5012568;28;20200;-81
2022/12/31 02:07:42;;;;;;;1.75;0.22;;;14.50;99.90;;;;;;5009747;28;20164;-81
2022/12/31 02:10:08;;;;;;;3.92;0.45;;;14.50;99.90;;;;;;5025340;28;20201;-82
2022/12/31 02:12:34;;;;;;;0.28;0.22;;;14.60;99.90;;;;;;5010294;28;20194;-83
2022/12/31 02:15:00;;;;;;;0.68;0.30;;;14.70;99.90;;;;;;5012226;28;20196;-82
2022/12/31 02:17:45;;;;;;;0.82;0.30;;;14.80;99.90;;;;;;5004804;28;20666;-81
2022/12/31 02:20:58;;;;;;;1.70;0.30;;;14.70;99.90;;;;;;5004768;28;20598;-81
2022/12/31 02:23:59;;;;;;;2.17;0.57;;;14.70;99.90;;;;;;5005849;28;20204;-82
2022/12/31 02:26:30;;;;;;;2.67;0.45;;;14.80;99.90;;;;;;5010613;28;20205;-82
2022/12/31 02:29:18;;;;;;;1.50;0.47;;;14.80;99.90;;;;;;5030450;28;20188;-82
2022/12/31 02:31:56;;;;;;;3.10;0.40;;;14.80;99.90;;;;;;5013843;28;20177;-81
2022/12/31 02:34:42;;;;;;;4.03;0.43;;;14.80;99.90;;;;;;5012917;28;20177;-82
2022/12/31 02:37:12;;;;;;;0.77;0.50;;;14.80;99.90;;;;;;5014392;28;20149;-82
2022/12/31 02:39:39;;;;;;;3.83;0.50;;;14.80;99.90;;;;;;5014955;28;20177;-82
2022/12/31 02:42:14;;;;;;;0.52;0.30;;;14.90;99.90;;;;;;5111367;27;20648;-81
2022/12/31 02:44:41;;;;;;;0.52;0.30;;;14.90;99.90;;;;;;5111925;28;20166;-81
2022/12/31 02:47:34;;;;;;;3.17;0.70;;;14.90;99.90;;;;;;5113577;28;20180;-80
2022/12/31 02:50:14;;;;;;;2.45;0.40;;;15.00;99.90;;;;;;5111736;28;20161;-81
2022/12/31 02:52:51;;;;;;;1.92;0.52;;;15.00;99.90;;;;;;5108572;28;20257;-80
2022/12/31 02:55:44;;;;;;;2.95;0.70;;;15.00;99.90;;;;;;5105434;28;20157;-80
2022/12/31 02:58:15;;;;;;;3.20;0.80;;;15.00;99.90;;;;;;5107752;28;20634;-83
2022/12/31 03:03:37;;;;;;;8.57;1.05;;;15.00;99.90;;;;;;5094071;28;20232;-85
2022/12/31 03:06:04;;;;;;;1.83;0.60;;;15.00;99.90;;;;;;5092053;28;20631;-81
2022/12/31 03:08:30;;;;;;;0.98;0.60;;;15.00;99.90;;;;;;5091412;28;21237;-82
2022/12/31 03:12:44;;;;;;;6.25;0.57;;;15.10;99.90;;;;;;5091531;28;20208;-85
2022/12/31 03:13:43;;;;;;;1.52;0.60;;;15.10;99.90;;;;;;5091044;28;20198;-89
2022/12/31 03:16:08;;;;;;;2.38;0.80;;;15.20;99.90;;;;;;5091406;28;20189;-89
2022/12/31 03:26:46;;;;;;;1.08;0.38;;;15.30;99.90;;;;;;5090992;28;20546;-88
2022/12/31 03:29:54;;;;;;;2.17;0.63;;;15.30;99.90;;;;;;5093976;28;20150;-88
2022/12/31 03:32:19;;;;;;;3.10;0.40;;;15.40;99.90;;;;;;5091211;28;20212;-89
2022/12/31 03:34:44;;;;;;;1.98;0.63;;;15.40;99.90;;;;;;5091338;28;20178;-86
2022/12/31 03:37:10;;;;;;;1.63;0.63;;;15.50;99.90;;;;;;5090615;28;20618;-87
2022/12/31 03:39:35;;;;;;;1.65;0.32;;;15.40;99.90;;;;;;5091051;28;20178;-88
2022/12/31 03:42:01;;;;;;;6.85;0.63;;;15.40;99.90;;;;;;5090662;28;20210;-88
2022/12/31 03:44:26;;;;;;;0.63;0.40;;;15.40;99.90;;;;;;5090517;28;20315;-80
2022/12/31 03:46:52;;;;;;;0.85;0.40;;;15.50;99.90;;;;;;5090679;28;20178;-87
2022/12/31 03:49:17;;;;;;;6.82;0.68;;;15.60;99.90;;;;;;5089349;28;20694;-87
2022/12/31 03:51:43;;;;;;;1.85;0.50;;;15.60;99.90;;;;;;5087666;28;20163;-87
2022/12/31 03:54:09;;;;;;;1.02;0.52;;;15.60;99.90;;;;;;5077132;28;20182;-88
2022/12/31 03:56:34;;;;;;;3.00;0.63;;;15.70;99.90;;;;;;5076275;28;20240;-87
2022/12/31 03:59:00;;;;;;;0.40;0.32;;;15.60;99.90;;;;;;5077400;28;20154;-87
2022/12/31 04:01:25;;;;;;;1.17;0.57;;;15.60;99.90;;;;;;5076799;28;20209;-87
2022/12/31 04:03:51;;;;;;;0.85;0.40;;;15.60;99.90;;;;;;5076571;28;20186;-85
2022/12/31 04:06:17;;;;;;;1.83;0.63;;;15.70;99.90;;;;;;5075551;28;20646;-82
2022/12/31 04:08:42;;;;;;;0.77;0.30;;;15.80;99.90;;;;;;5076368;28;20292;-88
2022/12/31 04:11:08;;;;;;;2.80;0.40;;;15.80;99.90;;;;;;5076352;28;20261;-88
2022/12/31 04:13:33;;;;;;;1.48;0.52;;;15.70;99.90;;;;;;5075153;28;20179;-84
2022/12/31 04:15:59;;;;;;;3.40;0.82;;;15.70;99.90;;;;;;5075044;28;20201;-86
2022/12/31 04:18:24;;;;;;;1.38;0.32;;;15.70;99.90;;;;;;5075258;28;20616;-86
2022/12/31 04:20:50;;;;;;;1.45;0.47;;;15.70;99.90;;;;;;5076038;28;20298;-80
2022/12/31 04:23:16;;;;;;;1.55;0.40;;;15.70;99.90;;;;;;5074930;28;20654;-85
2022/12/31 04:25:41;;;;;;;0.63;0.50;;;15.80;99.90;;;;;;5075845;28;20249;-82
2022/12/31 04:28:07;;;;;;;1.08;0.45;;;15.80;99.90;;;;;;5074666;28;20198;-83
2022/12/31 04:30:32;;;;;;;4.25;0.73;;;15.80;99.90;;;;;;5075962;28;20163;-85
2022/12/31 04:32:58;;;;;;;1.63;0.57;;;15.80;99.90;;;;;;5075698;28;20678;-85
2022/12/31 04:35:24;;;;;;;0.70;0.50;;;15.70;99.90;;;;;;5074343;28;20177;-87
2022/12/31 04:37:49;;;;;;;1.95;0.52;;;15.50;99.90;;;;;;5075337;28;20208;-82
2022/12/31 04:40:24;;;;;;;1.45;0.30;;;15.40;99.90;;;;;;5074118;28;20297;-87
2022/12/31 04:42:50;;;;;;;2.13;0.47;;;15.40;99.90;;;;;;5075229;28;20303;-85
2022/12/31 04:45:15;;;;;;;1.92;0.90;;;15.40;99.90;;;;;;5074804;28;20282;-83
2022/12/31 04:47:41;;;;;;;0.63;0.40;;;15.30;99.90;;;;;;5075018;28;20170;-89
2022/12/31 04:50:07;;;;;;;0.60;0.30;;;15.30;99.90;;;;;;5075431;28;20684;-89
2022/12/31 04:52:32;;;;;;;0.55;0.40;;;15.40;99.90;;;;;;5074842;28;20201;-89
2022/12/31 04:54:58;;;;;;;2.42;0.70;;;15.50;99.90;;;;;;5074616;28;20189;-86
2022/12/31 04:57:24;;;;;;;1.27;0.40;;;15.60;99.90;;;;;;5074655;28;20726;-81
2022/12/31 04:59:49;;;;;;;4.88;0.60;;;15.60;99.90;;;;;;5074665;28;20167;-89
2022/12/31 05:02:15;;;;;;;2.65;0.55;;;15.70;99.90;;;;;;5076004;28;20189;-81
2022/12/31 05:04:40;;;;;;;0.30;0.30;;;15.80;99.90;;;;;;5076408;28;20167;-82
2022/12/31 05:07:06;;;;;;;1.33;0.43;;;15.90;99.90;;;;;;5075252;28;20607;-80
2022/12/31 05:09:31;;;;;;;3.55;0.70;;;15.90;99.90;;;;;;5075382;28;20163;-85
2022/12/31 05:11:57;;;;;;;1.05;0.40;;;16.00;99.90;;;;;;5075298;28;20169;-87
2022/12/31 05:14:23;;;;;;;1.55;0.30;;;16.00;99.90;;;;;;5073690;28;20209;-81
2022/12/31 05:16:48;;;;;;;1.10;0.50;;;16.10;99.90;;;;;;5074859;28;20186;-85
2022/12/31 05:19:14;;;;;;;6.53;0.40;;;16.20;99.90;;;;;;5075190;28;20650;-85
2022/12/31 05:21:39;;;;;;;1.55;0.50;;;16.20;99.90;;;;;;5075009;28;20202;-82
2022/12/31 05:24:05;;;;;;;2.08;0.50;;;16.20;99.90;;;;;;5073103;28;20198;-80
2022/12/31 05:26:31;;;;;;;1.55;0.50;;;16.20;99.90;;;;;;5074193;28;20217;-86
2022/12/31 05:28:59;;;;;;;2.20;0.40;;;16.30;99.90;;;;;;5073399;28;20240;-88
2022/12/31 05:31:25;;;;;;;1.10;0.40;;;16.20;99.90;;;;;;5073231;28;20204;-87
2022/12/31 05:33:51;;;;;;;0.80;0.38;;;16.20;99.90;;;;;;5073497;28;20187;-80
2022/12/31 05:36:17;;;;;;;3.78;0.40;;;16.20;99.90;;;;;;5073880;28;20174;-88
2022/12/31 05:38:42;;;;;;;1.88;0.50;;;16.20;99.90;;;;;;5073132;28;20228;-89
2022/12/31 05:41:09;;;;;;;2.10;0.70;;;16.30;99.90;;;;;;5074594;28;20214;-84
2022/12/31 05:43:35;;;;;;;1.65;0.20;;;16.30;99.90;;;;;;5073127;28;20186;-86
2022/12/31 05:46:02;;;;;;;0.98;0.50;;;16.30;99.90;;;;;;5073843;28;20178;-83
2022/12/31 05:48:28;;;;;;;2.67;0.60;;;16.30;99.90;;;;;;5073280;28;20209;-88
2022/12/31 05:50:54;;;;;;;0.93;0.50;;;16.30;99.90;;;;;;5074542;28;20201;-84
2022/12/31 05:53:19;;;;;;;0.47;0.30;;;16.30;99.90;;;;;;5072782;28;20336;-89
2022/12/31 05:55:46;;;;;;;3.70;0.32;;;16.40;99.90;;;;;;5074679;28;20170;-82
2022/12/31 05:58:12;;;;;;;3.63;0.50;;;16.40;99.90;;;;;;5074792;28;20178;-88
2022/12/31 06:00:38;;;;;;;1.38;0.60;;;16.40;99.90;;;;;;5072739;28;20198;-87
2022/12/31 06:03:03;;;;;;;3.47;0.70;;;16.40;99.90;;;;;;5072918;28;20539;-87
2022/12/31 06:05:29;;;;;;;1.58;0.70;;;16.40;99.90;;;;;;5073059;28;20296;-86
2022/12/31 06:07:55;;;;;;;3.10;0.43;;;16.40;99.90;;;;;;5072997;28;20182;-83
2022/12/31 06:10:20;;;;;;;0.40;0.35;;;16.50;99.90;;;;;;5074038;28;20173;-85
2022/12/31 06:12:46;;;;;;;3.80;0.80;;;16.50;99.90;;;;;;5073819;28;20591;-84
2022/12/31 06:15:11;;;;;;;0.82;0.47;;;16.40;99.90;;;;;;5073832;28;20200;-85
2022/12/31 06:17:37;;;;;;;1.45;0.55;;;16.40;99.90;;;;;;5074063;28;20171;-87
2022/12/31 06:20:03;;;;;;;3.97;0.65;;;16.40;99.90;;;;;;5073156;28;20197;-89
2022/12/31 06:22:28;;;;;;;3.80;0.68;;;16.40;99.90;;;;;;5073178;28;20194;-81
2022/12/31 06:24:54;;;;;;;1.70;0.80;;;16.50;99.90;;;;;;5073224;28;20213;-89
2022/12/31 06:27:20;;;;;;;1.08;0.57;;;16.40;99.90;;;;;;5073275;28;20174;-89
2022/12/31 06:29:46;;;;;;;0.95;0.47;;;16.30;99.90;;;;;;5072174;28;20162;-84
2022/12/31 06:32:12;;;;;;;2.15;0.60;;;16.30;99.90;;;;;;5071727;28;20171;-85
2022/12/31 06:34:38;;;;;;;9.85;0.52;;;16.30;99.90;;;;;;5072857;28;20658;-81
2022/12/31 06:37:03;;;;;;;4.32;0.85;;;16.20;99.90;;;;;;5073207;28;20233;-84
2022/12/31 06:39:29;;;;;;;4.88;0.70;;;16.30;99.90;;;;;;5073077;28;20173;-90
2022/12/31 06:41:54;;;;;;;5.72;0.50;;;16.30;99.90;;;;;;5071675;28;20263;-82
2022/12/31 06:44:21;;;;;;;2.97;0.43;;;16.40;99.90;;;;;;5072034;28;20731;-80
2022/12/31 06:46:48;;;;;;;3.08;0.75;;;16.50;99.90;;;;;;5071904;28;20553;-87
2022/12/31 06:49:14;;;;;;;2.33;0.82;;;16.50;99.90;;;;;;5071972;28;20178;-88
2022/12/31 06:51:39;;;;;;;1.60;0.50;;;16.60;99.90;;;;;;5073126;28;20165;-79
2022/12/31 06:54:05;;;;;;;12.38;1.08;;;16.60;99.90;;;;;;5071299;28;20182;-80
2022/12/31 06:56:31;;;;;;;2.65;0.75;;;16.50;99.90;;;;;;5072767;28;20201;-89
2022/12/31 06:58:57;;;;;;;2.30;0.80;;;16.50;99.90;;;;;;5073002;28;20180;-90
2022/12/31 07:01:44;;;;;;;0.85;0.63;;;16.50;99.90;;;;;;5072997;28;20210;-83
2022/12/31 07:04:24;;;;;;;2.13;0.50;;;16.40;99.90;;;;;;5073136;28;20189;-86
2022/12/31 07:07:14;;;;;;;2.60;0.77;;;16.30;99.90;;;;;;5071719;28;20619;-87
2022/12/31 07:09:56;;;;;;;3.67;1.00;;;16.10;99.90;;;;;;5072539;28;20175;-88
2022/12/31 07:12:43;;;;;;;1.42;0.70;;;16.00;99.90;;;;;;5072503;28;20162;-82
2022/12/31 07:15:18;;;;;;;3.35;0.82;;;15.90;99.90;;;;;;5072974;28;20257;-83
2022/12/31 07:18:04;;;;;;;1.30;0.47;;;15.80;99.90;;;;;;5073294;28;20256;-82
2022/12/31 07:20:30;;;;;;;1.48;0.50;;;15.70;99.90;;;;;;5072349;28;20213;-81
2022/12/31 07:22:56;;;;;;;0.68;0.38;;;15.70;99.90;;;;;;5072463;28;20546;-88
2022/12/31 07:25:22;;;;;;;2.58;0.70;;;15.70;99.90;;;;;;5072712;28;20167;-88
2022/12/31 07:28:03;;;;;;;0.85;0.60;;;15.70;99.90;;;;;;5074328;28;20171;-81
2022/12/31 07:30:47;;;;;;;2.58;0.70;;;15.70;99.90;;;;;;5076254;28;20188;-81
2022/12/31 07:33:21;;;;;;;2.88;0.40;;;15.80;99.90;;;;;;5076272;28;20233;-91
2022/12/31 07:35:56;;;;;;;2.42;0.70;;;15.90;99.90;;;;;;5075316;28;20176;-87
2022/12/31 07:38:34;;;;;;;0.77;0.60;;;16.00;99.90;;;;;;5076610;28;20161;-82
2022/12/31 07:41:15;;;;;;;1.63;0.75;;;15.90;99.90;;;;;;5074290;28;20209;-82
2022/12/31 07:43:58;;;;;;;0.65;0.50;;;15.90;99.90;;;;;;5075282;28;20522;-80
2022/12/31 07:46:27;;;;;;;7.80;0.75;;;16.00;99.90;;;;;;5075695;28;20202;-81
2022/12/31 07:48:53;;;;;;;2.70;0.60;;;16.00;99.90;;;;;;5075485;28;20155;-86
2022/12/31 07:51:19;;;;;;;5.93;0.80;;;16.00;99.90;;;;;;5074824;28;20212;-82
2022/12/31 07:53:45;;;;;;;3.38;1.08;;;16.00;99.90;;;;;;5076095;28;20758;-88
2022/12/31 07:56:11;;;;;;;1.85;0.63;;;15.80;99.90;;;;;;5075768;28;20179;-81
2022/12/31 07:58:52;;;;;;;2.28;0.80;;;15.70;99.90;;;;;;5075603;28;20208;-81
2022/12/31 08:01:46;;;;;;;1.60;0.77;;;15.60;99.90;;;;;;5075467;28;20678;-81
2022/12/31 08:04:23;;;;;;;1.13;0.68;;;15.60;99.90;;;;;;5074735;28;20205;-87
2022/12/31 08:07:16;;;;;;;1.38;0.70;;;15.60;99.90;;;;;;5074240;28;20653;-80
2022/12/31 08:10:01;;;;;;;5.78;0.98;;;15.60;99.90;;;;;;5073623;28;20171;-82
2022/12/31 08:12:29;;;;;;;3.88;0.60;;;15.70;99.90;;;;;;5073492;28;20174;-81
2022/12/31 08:14:55;;;;;;;2.65;0.93;;;15.70;99.90;;;;;;5074917;28;20526;-81
2022/12/31 08:17:21;;;;;;;2.92;0.70;;;15.80;99.90;;;;;;5073793;28;20179;-84
2022/12/31 08:19:48;;;;;;;4.65;0.90;;;15.80;99.90;;;;;;5075056;28;20673;-80
2022/12/31 08:22:45;;;;;;;3.17;0.70;;;15.90;99.90;;;;;;5074995;28;20202;-79
2022/12/31 08:25:40;;;;;;;1.83;0.80;;;15.90;99.90;;;;;;5074425;28;20194;-90
2022/12/31 08:28:42;;;;;;;2.47;0.60;;;16.00;99.90;;;;;;5074363;28;20251;-81
2022/12/31 08:31:21;;;;;;;5.32;0.90;;;16.10;99.90;;;;;;5074435;28;20178;-81
2022/12/31 08:33:59;;;;;;;2.28;0.70;;;16.10;99.90;;;;;;5082552;28;20197;-78
2022/12/31 08:36:36;;;;;;;4.85;1.15;;;16.20;99.90;;;;;;5088594;28;20200;-81
2022/12/31 08:39:14;;;;;;;1.48;0.65;;;16.20;99.90;;;;;;5085292;28;20174;-78
2022/12/31 08:41:47;;;;;;;4.13;0.90;;;16.30;99.90;;;;;;5085547;28;20202;-79
2022/12/31 08:44:21;;;;;;;8.02;0.70;;;16.30;99.90;;;;;;5090709;28;20193;-80
2022/12/31 08:47:02;;;;;;;4.18;1.23;;;16.40;99.90;;;;;;5093112;28;20169;-94
2022/12/31 08:49:34;;;;;;;2.33;0.80;;;16.40;99.90;;;;;;5080607;28;20233;-79
2022/12/31 08:52:01;;;;;;;4.95;0.75;;;16.50;99.90;;;;;;5079461;28;20182;-78
2022/12/31 08:54:28;;;;;;;5.38;0.98;;;16.50;99.90;;;;;;5077011;28;20651;-78
2022/12/31 08:57:12;;;;;;;3.13;0.65;;;16.60;99.90;;;;;;5075146;28;20657;-79
2022/12/31 08:59:57;;;;;;;5.93;0.85;;;16.60;99.90;;;;;;5074822;28;20171;-82
2022/12/31 09:02:39;;;;;;;4.18;0.98;;;16.60;99.90;;;;;;5075024;28;20542;-79
2022/12/31 09:05:24;;;;;;;7.30;1.00;;;16.60;99.90;;;;;;5088889;28;20166;-82
2022/12/31 09:08:07;;;;;;;7.30;0.70;;;16.70;99.90;;;;;;5064122;28;20210;-86
2022/12/31 09:10:45;;;;;;;4.93;0.90;;;16.60;99.90;;;;;;5065403;28;20167;-90
2022/12/31 09:13:28;;;;;;;2.72;1.40;;;16.70;99.90;;;;;;5062741;28;20242;-83
2022/12/31 09:16:25;;;;;;;3.95;1.20;;;16.70;99.90;;;;;;5064598;28;20167;-83
2022/12/31 09:18:50;;;;;;;2.47;0.70;;;16.70;99.90;;;;;;5058827;28;20167;-79
2022/12/31 09:21:16;;;;;;;8.63;1.65;;;16.80;99.90;;;;;;5052108;28;20611;-79
2022/12/31 09:23:42;;;;;;;7.57;1.63;;;16.80;99.90;;;;;;5054340;28;20216;-79
2022/12/31 09:26:28;;;;;;;8.02;1.05;;;16.80;99.90;;;;;;5053929;28;20273;-79
2022/12/31 09:29:24;;;;;;;8.23;0.85;;;16.90;99.90;;;;;;5053315;28;20179;-79
2022/12/31 09:32:13;;;;;;;1.90;0.75;;;16.90;99.90;;;;;;5054893;28;20674;-82
2022/12/31 09:34:50;;;;;;;3.20;0.95;;;16.70;99.90;;;;;;5056725;28;20175;-85
2022/12/31 09:37:47;;;;;;;3.42;1.00;;;16.70;99.90;;;;;;5055275;28;20170;-90
2022/12/31 09:40:27;;;;;;;4.93;1.20;;;16.70;99.90;;;;;;5055453;28;20635;-90
2022/12/31 09:43:30;;;;;;;5.65;1.13;;;16.70;99.90;;;;;;5056439;28;20725;-86
2022/12/31 09:46:33;;;;;;;4.63;1.02;;;16.60;99.90;;;;;;5069744;28;20167;-78
2022/12/31 09:49:21;;;;;;;1.70;0.90;;;16.40;99.90;;;;;;5060484;28;20163;-90
2022/12/31 09:52:13;;;;;;;3.75;1.20;;;16.30;99.90;;;;;;5078650;28;20187;-89
2022/12/31 09:55:05;;;;;;;5.70;1.40;;;16.30;99.90;;;;;;5074934;28;20163;-80
2022/12/31 09:57:55;;;;;;;4.95;1.33;;;16.40;99.90;;;;;;5076617;28;20254;-79
2022/12/31 10:00:22;;;;;;;6.10;1.20;;;16.40;99.90;;;;;;5075226;28;20225;-89
2022/12/31 10:02:51;;;;;;;3.00;0.82;;;16.50;99.90;;;;;;5074352;28;20209;-84
2022/12/31 10:05:44;;;;;;;5.63;1.02;;;16.60;99.90;;;;;;5073436;28;20162;-80
2022/12/31 10:09:01;;;;;;;7.32;1.23;;;16.70;99.90;;;;;;5073670;28;20224;-82
2022/12/31 10:11:44;;;;;;;18.00;1.92;;;16.70;99.90;;;;;;5064824;28;20178;-89
2022/12/31 10:14:34;;;;;;;7.10;1.40;;;16.80;99.90;;;;;;5072319;28;20190;-87
2022/12/31 10:17:23;;;;;;;5.80;1.02;;;16.80;99.90;;;;;;5072307;28;20185;-79
2022/12/31 10:20:15;;;;;;;5.10;1.30;;;16.80;99.90;;;;;;5073678;28;20279;-80
2022/12/31 10:22:55;;;;;;;7.68;1.52;;;16.80;99.90;;;;;;5072990;28;20198;-79
2022/12/31 10:25:44;;;;;;;8.93;1.30;;;16.90;99.90;;;;;;5072882;28;20625;-80
2022/12/31 10:28:29;;;;;;;9.68;0.98;;;16.90;99.90;;;;;;5072122;28;20285;-80
2022/12/31 10:31:19;;;;;;;4.95;1.35;;;17.00;99.90;;;;;;5072355;28;20182;-91
2022/12/31 10:33:59;;;;;;;3.38;1.15;;;17.00;99.90;;;;;;5071806;28;20225;-82
2022/12/31 10:36:45;;;;;;;7.22;1.25;;;17.00;99.90;;;;;;5072991;28;20256;-82
2022/12/31 10:39:29;;;;;;;4.68;1.27;;;17.10;99.90;;;;;;5072703;28;20162;-91
2022/12/31 10:42:09;;;;;;;5.60;1.08;;;17.00;99.90;;;;;;5072653;28;20297;-79
2022/12/31 10:44:59;;;;;;;7.85;1.70;;;17.00;99.90;;;;;;5072948;28;20178;-84
2022/12/31 10:47:45;;;;;;;3.80;1.33;;;17.00;99.90;;;;;;5073000;28;20621;-80
2022/12/31 10:50:26;;;;;;;8.65;1.55;;;17.00;99.90;;;;;;5072916;28;20162;-85
2022/12/31 10:53:13;;;;;;;4.28;1.50;;;16.90;99.90;;;;;;5072714;28;20194;-79
2022/12/31 10:56:08;;;;;;;4.57;1.50;;;17.00;99.90;;;;;;5073061;28;20223;-80
2022/12/31 10:58:52;;;;;;;7.13;1.27;;;17.00;99.90;;;;;;5072371;28;20170;-83
2022/12/31 11:01:31;;;;;;;3.67;1.98;;;17.00;99.90;;;;;;5072942;28;20202;-86
2022/12/31 11:04:22;;;;;;;3.13;1.10;;;17.00;99.90;;;;;;5076939;28;20182;-87
2022/12/31 11:07:26;;;;;;;5.60;1.00;;;16.90;99.90;;;;;;5076089;28;20174;-82
2022/12/31 11:10:25;;;;;;;2.38;1.08;;;16.90;99.90;;;;;;5077098;28;20174;-80
2022/12/31 11:13:02;;;;;;;8.38;1.63;;;16.90;99.90;;;;;;5077530;28;20081;-81
2022/12/31 11:15:52;;;;;;;3.47;1.10;;;16.80;99.90;;;;;;5070391;28;20474;-84
2022/12/31 11:18:52;;;;;;;2.50;1.10;;;16.60;99.90;;;;;;5076493;28;20254;-87
2022/12/31 11:21:48;;;;;;;5.82;1.42;;;16.70;99.90;;;;;;5076006;28;20214;-85
2022/12/31 11:24:26;;;;;;;9.55;2.13;;;16.60;99.90;;;;;;5058290;28;20191;-85
2022/12/31 11:27:04;;;;;;;6.88;1.85;;;16.60;99.90;;;;;;5076542;28;20178;-86
2022/12/31 11:30:15;;;;;;;16.27;2.15;;;16.60;99.90;;;;;;5075558;28;20181;-84
2022/12/31 11:33:05;;;;;;;7.28;1.35;;;16.60;99.90;;;;;;5055751;28;20193;-79
2022/12/31 11:35:43;;;;;;;4.78;1.23;;;16.60;99.90;;;;;;5055943;28;20171;-84
2022/12/31 11:38:25;;;;;;;5.03;1.75;;;16.60;99.90;;;;;;5055640;28;20186;-83
2022/12/31 11:40:57;;;;;;;6.82;2.70;;;16.70;99.90;;;;;;5055264;28;20289;-85
2022/12/31 11:43:26;;;;;;;8.98;1.48;;;16.80;99.90;;;;;;5055395;28;20226;-80
2022/12/31 11:46:05;;;;;;;7.70;1.70;;;16.90;99.90;;;;;;5055662;28;20160;-82
2022/12/31 11:48:50;;;;;;;5.82;1.63;;;17.10;99.90;;;;;;5056748;28;20586;-88
2022/12/31 11:51:35;;;;;;;6.70;1.50;;;17.00;99.90;;;;;;5076773;28;20171;-83
2022/12/31 11:54:19;;;;;;;7.60;1.73;;;17.00;99.90;;;;;;5075589;28;20189;-88
2022/12/31 11:57:14;;;;;;;3.38;1.27;;;17.00;99.90;;;;;;5076169;28;20264;-84
2022/12/31 11:59:40;;;;;;;3.53;1.52;;;17.10;99.90;;;;;;5076691;28;20162;-87
2022/12/31 12:02:27;;;;;;;2.80;1.45;;;17.00;99.90;;;;;;5076400;28;20206;-84
2022/12/31 12:04:54;;;;;;;4.32;1.15;;;17.00;99.90;;;;;;5075780;28;20212;-80
2022/12/31 12:07:20;;;;;;;9.90;1.35;;;17.20;99.90;;;;;;5074968;28;20228;-79
2022/12/31 12:09:46;;;;;;;6.65;2.08;;;17.20;99.90;;;;;;5074868;28;20251;-79
2022/12/31 12:12:12;;;;;;;3.38;1.45;;;17.30;99.90;;;;;;5074867;28;20163;-80
2022/12/31 12:14:40;;;;;;;3.45;1.13;;;17.20;99.90;;;;;;5074634;28;20506;-80
2022/12/31 12:17:09;;;;;;;3.08;1.50;;;17.30;99.90;;;;;;5074966;28;20198;-79
2022/12/31 12:19:45;;;;;;;5.18;1.45;;;17.20;99.90;;;;;;5074751;28;20174;-80
2022/12/31 12:22:13;;;;;;;4.22;1.60;;;17.20;99.90;;;;;;5077117;28;20239;-82
2022/12/31 12:24:39;;;;;;;7.97;1.90;;;17.20;99.90;;;;;;5076299;28;20650;-79
2022/12/31 12:27:20;;;;;;;3.75;1.30;;;17.20;99.90;;;;;;5075828;28;20174;-85
2022/12/31 12:29:46;;;;;;;2.40;1.40;;;17.10;99.90;;;;;;5075206;28;20216;-79
2022/12/31 12:32:21;;;;;;;6.43;1.52;;;17.10;99.90;;;;;;5074394;28;20170;-82
2022/12/31 12:34:47;;;;;;;10.75;1.67;;;17.00;99.90;;;;;;5074330;28;20162;-79
2022/12/31 12:37:33;;;;;;;1.92;1.30;;;17.00;99.90;;;;;;5074714;28;20257;-79
2022/12/31 12:40:25;;;;;;;9.00;1.65;;;17.00;99.90;;;;;;5074997;28;20169;-82
2022/12/31 12:42:53;;;;;;;8.10;1.70;;;16.90;99.90;;;;;;5074213;28;20250;-79
2022/12/31 12:45:22;;;;;;;4.38;1.55;;;16.90;99.90;;;;;;5074196;28;20159;-79
2022/12/31 12:47:54;;;;;;;5.25;1.70;;;16.90;99.90;;;;;;5074361;28;20173;-88
2022/12/31 12:50:23;;;;;;;2.60;1.67;;;17.00;99.90;;;;;;5073942;28;20212;-79
2022/12/31 12:53:04;;;;;;;5.93;2.30;;;17.00;99.90;;;;;;5075095;28;20190;-79
2022/12/31 12:56:07;;;;;;;6.70;2.88;;;16.80;99.90;;;;;;5074085;28;20166;-79
2022/12/31 12:58:55;;;;;;;5.15;1.98;;;16.80;99.90;;;;;;5066542;28;20158;-81
2022/12/31 13:02:14;;;;;;;7.00;2.95;;;16.90;99.90;;;;;;5055215;28;20671;-81
2022/12/31 13:05:16;;;;;;;5.47;1.88;;;16.90;99.90;;;;;;5051701;28;20240;-80
2022/12/31 13:08:08;;;;;;;8.52;1.58;;;16.80;99.90;;;;;;5062719;28;20173;-90
2022/12/31 13:11:01;;;;;;;8.55;2.47;;;16.90;99.90;;;;;;5061821;28;20627;-84
2022/12/31 13:13:45;;;;;;;8.27;1.92;;;16.90;99.90;;;;;;5061048;28;20607;-83
2022/12/31 13:16:54;;;;;;;14.20;2.22;;;16.90;99.90;;;;;;5059368;28;20163;-86
2022/12/31 13:19:59;;;;;;;10.82;2.40;;;16.80;99.90;;;;;;5057626;28;20629;-92
2022/12/31 13:22:49;;;;;;;6.97;1.75;;;16.90;99.90;;;;;;5053196;28;20268;-78
2022/12/31 13:25:39;;;;;;;8.38;2.38;;;17.00;99.90;;;;;;5052267;28;20163;-81
2022/12/31 13:28:11;;;;;;;14.52;2.85;;;16.90;99.90;;;;;;5053342;28;20174;-78
2022/12/31 13:30:44;;;;;;;8.52;2.30;;;16.90;99.90;;;;;;5053056;28;20174;-78
2022/12/31 13:33:27;;;;;;;5.45;1.85;;;16.90;99.90;;;;;;5054149;28;20187;-81
2022/12/31 13:35:58;;;;;;;5.57;2.13;;;17.00;99.90;;;;;;5074072;28;20215;-78
2022/12/31 13:38:32;;;;;;;9.73;2.08;;;17.00;99.90;;;;;;5075039;28;20194;-91